Noah, Georgia
Current Conditions -  °F | °C
As of 2:53 AM on Saturday 20 Dec 2014 (Local Time) from KAGS Reporting Station
Light Rain Light Rain  
Wind Chill: 48°   Ceiling: 7000
Heat Index: 48°   Visibility: 10mi
Dew Point: 46°   Wind: 3mph
Humidity: 93%   Direction: 360°N
Pressure: 30.14"   Gusts: NA
Location:  33.2117°N, 82.3044°W
Report Text: KAGS 200753Z AUTO 36003KT 10SM -RA BKN070 OVC085 09/08 A3014 RMK AO2 SLP206 P0000 T00890078
Loading
Personal Weather Stations






























Interactive Weather Map New forecast layout! Learn more

10-Day Weather Forecast

Advertisements
Track Severe Weather on mobile